Time;durP1;ratioP1;P1;durP2;ratioP2;P2;SDS_P1;SDS_P2;PMS_P1;PMS_P2;Temp;Humidity;BMP_temperature;BMP_pressure;BME280_temperature;BME280_humidity;BME280_pressure;Samples;Min_cycle;Max_cycle;Signal;HPM_P1;HPM_P2
2022/02/27 00:01:31;;;;;;;3.72;1.42;;;8.60;55.00;;;;;;4974283;28;20096;-73
2022/02/27 00:03:56;;;;;;;3.60;1.30;;;8.60;55.50;;;;;;4956851;28;20034;-73
2022/02/27 00:06:22;;;;;;;3.17;1.40;;;8.60;55.10;;;;;;4974357;28;20085;-69
2022/02/27 00:08:48;;;;;;;3.75;1.25;;;8.60;55.40;;;;;;4956824;28;20050;-72
2022/02/27 00:11:18;;;;;;;2.70;1.25;;;8.60;55.50;;;;;;4974376;28;20444;-73
2022/02/27 00:13:43;;;;;;;1.88;1.13;;;8.60;55.30;;;;;;4974343;28;20037;-73
2022/02/27 00:16:09;;;;;;;3.88;1.30;;;8.60;55.40;;;;;;4974141;28;20037;-75
2022/02/27 00:18:35;;;;;;;3.85;1.40;;;8.60;55.40;;;;;;4972962;28;20392;-70
2022/02/27 00:21:01;;;;;;;5.57;1.60;;;8.60;55.30;;;;;;4973440;28;20337;-74
2022/02/27 00:23:27;;;;;;;5.22;1.45;;;8.60;55.40;;;;;;4973940;28;20122;-73
2022/02/27 00:25:53;;;;;;;2.88;1.10;;;8.50;55.40;;;;;;4956614;28;20035;-73
2022/02/27 00:28:18;;;;;;;3.53;1.40;;;8.50;55.50;;;;;;4973958;28;20122;-71
2022/02/27 00:30:44;;;;;;;3.20;1.42;;;8.50;55.90;;;;;;4973969;28;20377;-71
2022/02/27 00:33:10;;;;;;;5.22;1.40;;;8.50;55.70;;;;;;4973795;28;20033;-73
2022/02/27 00:35:39;;;;;;;2.95;1.17;;;8.50;55.90;;;;;;4973862;28;20460;-72
2022/02/27 00:38:08;;;;;;;3.17;1.15;;;8.50;55.70;;;;;;4973497;28;20039;-72
2022/02/27 00:40:33;;;;;;;3.38;1.33;;;8.50;56.10;;;;;;4973971;28;20394;-74
2022/02/27 00:43:00;;;;;;;3.05;1.40;;;8.40;56.20;;;;;;4974139;28;20038;-70
2022/02/27 00:45:26;;;;;;;5.70;1.48;;;8.40;56.10;;;;;;4966372;28;20027;-73
2022/02/27 00:47:52;;;;;;;5.03;1.73;;;8.40;56.10;;;;;;4973917;28;20038;-74
2022/02/27 00:50:19;;;;;;;4.85;1.30;;;8.40;56.40;;;;;;4973940;28;20110;-79
2022/02/27 00:52:46;;;;;;;4.93;1.60;;;8.40;57.30;;;;;;4972989;28;20086;-70
2022/02/27 00:55:12;;;;;;;3.70;1.60;;;8.30;57.30;;;;;;4973995;28;20031;-75
2022/02/27 00:57:39;;;;;;;3.25;1.30;;;8.30;56.80;;;;;;4973986;28;20027;-73
2022/02/27 01:00:06;;;;;;;7.28;1.50;;;8.30;57.20;;;;;;4974263;28;20488;-70
2022/02/27 01:02:32;;;;;;;4.35;1.52;;;8.30;56.90;;;;;;4956985;28;20380;-70
2022/02/27 01:04:57;;;;;;;4.68;1.40;;;8.30;57.60;;;;;;4973697;28;20035;-73
2022/02/27 01:07:23;;;;;;;3.90;1.40;;;8.30;57.00;;;;;;4973567;28;20034;-81
2022/02/27 01:09:51;;;;;;;3.35;1.48;;;8.30;56.80;;;;;;4976708;28;20045;-69
2022/02/27 01:12:17;;;;;;;5.15;1.60;;;8.30;57.10;;;;;;4962873;28;20115;-77
2022/02/27 01:14:42;;;;;;;3.28;1.27;;;8.30;56.70;;;;;;4974266;28;20027;-74
2022/02/27 01:17:08;;;;;;;2.90;1.17;;;8.30;56.70;;;;;;4973998;28;20023;-78
2022/02/27 01:19:35;;;;;;;5.75;1.90;;;8.20;56.30;;;;;;4977398;28;20023;-71
2022/02/27 01:22:01;;;;;;;3.90;1.40;;;8.30;56.50;;;;;;4977256;28;20101;-71
2022/02/27 01:24:26;;;;;;;3.13;1.25;;;8.30;56.30;;;;;;4960213;28;20043;-71
2022/02/27 01:26:52;;;;;;;3.65;1.70;;;8.30;56.30;;;;;;4961225;28;20023;-69
2022/02/27 01:29:18;;;;;;;3.22;1.40;;;8.20;56.30;;;;;;4978679;28;20487;-68
2022/02/27 01:31:44;;;;;;;3.60;1.55;;;8.30;56.40;;;;;;4977677;28;20034;-77
2022/02/27 01:34:12;;;;;;;6.50;1.60;;;8.30;55.90;;;;;;4977211;28;20033;-72
2022/02/27 01:36:37;;;;;;;3.72;1.45;;;8.30;56.70;;;;;;4977121;28;20023;-73
2022/02/27 01:39:05;;;;;;;3.88;1.50;;;8.30;56.10;;;;;;4959412;28;20110;-73
2022/02/27 01:41:31;;;;;;;5.53;1.40;;;8.30;56.60;;;;;;4977603;28;20464;-69
2022/02/27 01:43:56;;;;;;;3.95;1.70;;;8.30;56.10;;;;;;4945344;28;20039;-80
2022/02/27 01:46:23;;;;;;;6.22;1.40;;;8.20;55.90;;;;;;4977801;28;20062;-72
2022/02/27 01:48:49;;;;;;;4.47;1.60;;;8.20;56.60;;;;;;4976678;28;20045;-75
2022/02/27 01:51:20;;;;;;;5.63;1.50;;;8.20;55.80;;;;;;4976588;28;20027;-74
2022/02/27 01:53:47;;;;;;;4.15;1.30;;;8.20;56.50;;;;;;4959416;28;20396;-72
2022/02/27 01:56:14;;;;;;;5.75;1.85;;;8.20;55.90;;;;;;4975923;28;20042;-73
2022/02/27 01:58:40;;;;;;;4.38;1.85;;;8.20;55.70;;;;;;4959273;28;20030;-74
2022/02/27 02:01:07;;;;;;;6.50;1.75;;;8.30;55.90;;;;;;4976438;28;20027;-73
2022/02/27 02:03:32;;;;;;;3.58;1.45;;;8.20;56.20;;;;;;4976734;28;20031;-72
2022/02/27 02:05:59;;;;;;;6.95;2.20;;;8.20;55.50;;;;;;4976647;28;20025;-71
2022/02/27 02:08:24;;;;;;;6.20;1.85;;;8.20;55.50;;;;;;4976614;28;20057;-72
2022/02/27 02:10:50;;;;;;;5.45;1.60;;;8.20;55.50;;;;;;4959255;28;20484;-72
2022/02/27 02:13:16;;;;;;;7.25;2.15;;;8.20;55.50;;;;;;4976482;28;20037;-72
2022/02/27 02:15:42;;;;;;;4.85;1.95;;;8.20;55.50;;;;;;4976262;28;20019;-70
2022/02/27 02:18:09;;;;;;;6.47;1.67;;;8.20;55.70;;;;;;4976257;28;20027;-69
2022/02/27 02:20:36;;;;;;;3.75;1.50;;;8.20;55.50;;;;;;4976293;28;20417;-71
2022/02/27 02:23:03;;;;;;;3.30;1.70;;;8.20;55.40;;;;;;4959166;28;20188;-77
2022/02/27 02:25:28;;;;;;;8.25;1.90;;;8.20;55.60;;;;;;4958854;28;20035;-72
2022/02/27 02:27:54;;;;;;;6.57;1.80;;;8.10;55.60;;;;;;4976075;28;20453;-73
2022/02/27 02:30:20;;;;;;;5.75;1.83;;;8.10;55.60;;;;;;4974926;28;20023;-70
2022/02/27 02:32:57;;;;;;;4.57;1.45;;;8.10;55.60;;;;;;4976091;28;20026;-71
2022/02/27 02:35:28;;;;;;;5.55;1.80;;;8.10;55.80;;;;;;4975900;28;20027;-69
2022/02/27 02:37:54;;;;;;;5.38;2.22;;;8.10;56.30;;;;;;4975853;28;20019;-72
2022/02/27 02:40:25;;;;;;;5.55;1.85;;;8.10;55.90;;;;;;4975767;28;20074;-76
2022/02/27 02:42:51;;;;;;;8.05;1.60;;;8.00;55.90;;;;;;4959937;28;20045;-70
2022/02/27 02:45:19;;;;;;;8.45;2.00;;;8.00;56.10;;;;;;4978327;28;20035;-77
2022/02/27 02:47:47;;;;;;;5.97;1.52;;;8.00;56.20;;;;;;4986359;28;20054;-75
2022/02/27 02:50:15;;;;;;;23.85;10.38;;;8.00;56.40;;;;;;4992536;28;20090;-73
2022/02/27 02:52:41;;;;;;;6.60;2.00;;;8.00;56.40;;;;;;4983412;28;20081;-83
2022/02/27 02:55:10;;;;;;;4.28;1.63;;;7.90;57.00;;;;;;4977298;28;20731;-79
2022/02/27 02:57:36;;;;;;;7.93;1.65;;;7.90;57.10;;;;;;4976144;28;20042;-73
2022/02/27 03:00:05;;;;;;;5.10;1.90;;;7.90;57.30;;;;;;4975668;28;20384;-70
2022/02/27 03:02:31;;;;;;;5.10;1.80;;;7.90;57.40;;;;;;4975668;28;20054;-81
2022/02/27 03:04:58;;;;;;;6.75;1.83;;;7.90;57.50;;;;;;4975515;28;20381;-70
2022/02/27 03:07:27;;;;;;;7.55;1.73;;;7.80;58.00;;;;;;4975544;28;20030;-72
2022/02/27 03:09:53;;;;;;;4.65;1.70;;;7.80;57.80;;;;;;4975210;28;20392;-72
2022/02/27 03:12:18;;;;;;;5.28;1.70;;;7.80;58.10;;;;;;4975568;28;20496;-77
2022/02/27 03:14:44;;;;;;;6.45;1.50;;;7.80;58.50;;;;;;4975369;28;20046;-73
2022/02/27 03:17:11;;;;;;;6.30;1.70;;;7.70;58.40;;;;;;4975215;28;20476;-72
2022/02/27 03:19:38;;;;;;;4.85;1.50;;;7.70;58.90;;;;;;4974309;28;20070;-71
2022/02/27 03:22:04;;;;;;;5.40;1.55;;;7.70;59.00;;;;;;4974951;28;20071;-70
2022/02/27 03:24:30;;;;;;;6.15;1.73;;;7.70;58.90;;;;;;4976557;28;20058;-69
2022/02/27 03:26:55;;;;;;;13.18;3.00;;;7.70;59.00;;;;;;4976944;28;20110;-77
2022/02/27 03:29:21;;;;;;;5.32;1.60;;;7.70;59.40;;;;;;4976017;28;20045;-75
2022/02/27 03:31:47;;;;;;;5.45;2.00;;;7.70;59.10;;;;;;4975599;28;20033;-69
2022/02/27 03:34:12;;;;;;;7.82;2.03;;;7.60;59.50;;;;;;4975225;28;20022;-73
2022/02/27 03:36:38;;;;;;;8.45;2.05;;;7.60;59.90;;;;;;4974926;28;20125;-69
2022/02/27 03:39:04;;;;;;;4.70;1.90;;;7.60;59.50;;;;;;4974615;28;20046;-69
2022/02/27 03:41:29;;;;;;;4.47;1.75;;;7.60;59.80;;;;;;4974442;28;20030;-74
2022/02/27 03:43:55;;;;;;;6.53;2.20;;;7.60;59.80;;;;;;4957304;28;20033;-78
2022/02/27 03:46:20;;;;;;;7.03;1.77;;;7.60;60.00;;;;;;4974989;28;20082;-76
2022/02/27 03:48:48;;;;;;;4.70;1.70;;;7.60;60.70;;;;;;4974446;28;20106;-76
2022/02/27 03:51:13;;;;;;;4.50;1.42;;;7.50;60.10;;;;;;4974553;28;20114;-77
2022/02/27 03:53:40;;;;;;;8.55;2.05;;;7.50;60.40;;;;;;4974811;28;20109;-82
2022/02/27 03:56:06;;;;;;;4.32;1.88;;;7.50;60.70;;;;;;4974966;28;20065;-70
2022/02/27 03:58:32;;;;;;;5.82;1.85;;;7.50;60.40;;;;;;4974530;28;20027;-71
2022/02/27 04:00:58;;;;;;;4.07;1.70;;;7.60;60.60;;;;;;4974525;28;20023;-70
2022/02/27 04:03:25;;;;;;;6.15;1.98;;;7.50;60.60;;;;;;4956814;28;20074;-68
2022/02/27 04:05:51;;;;;;;5.80;1.80;;;7.50;60.70;;;;;;4974253;28;20031;-69
2022/02/27 04:08:17;;;;;;;4.13;1.83;;;7.50;60.70;;;;;;4974040;28;20039;-69
2022/02/27 04:10:43;;;;;;;5.70;1.48;;;7.50;60.50;;;;;;4974062;28;20058;-70
2022/02/27 04:13:10;;;;;;;6.10;1.75;;;7.50;60.80;;;;;;4974128;28;20042;-69
2022/02/27 04:15:36;;;;;;;5.00;1.65;;;7.50;60.70;;;;;;4974077;28;20485;-68
2022/02/27 04:18:02;;;;;;;6.40;1.98;;;7.40;61.00;;;;;;4973818;28;20023;-70
2022/02/27 04:20:28;;;;;;;5.20;1.65;;;7.50;60.90;;;;;;4974011;28;20048;-69
2022/02/27 04:22:54;;;;;;;6.28;1.63;;;7.40;61.00;;;;;;4973931;28;20094;-69
2022/02/27 04:25:20;;;;;;;6.15;1.70;;;7.40;61.10;;;;;;4974160;28;20027;-69
2022/02/27 04:27:45;;;;;;;8.07;1.88;;;7.40;61.10;;;;;;4974078;28;20062;-69
2022/02/27 04:30:13;;;;;;;9.52;2.38;;;7.40;61.10;;;;;;4973879;28;20073;-70
2022/02/27 04:32:38;;;;;;;5.15;1.80;;;7.40;61.30;;;;;;4973909;28;20106;-71
2022/02/27 04:35:05;;;;;;;5.78;1.83;;;7.40;61.30;;;;;;4973969;28;20062;-70
2022/02/27 04:37:30;;;;;;;5.90;1.85;;;7.40;61.10;;;;;;4973814;28;20023;-69
2022/02/27 04:39:56;;;;;;;6.07;1.70;;;7.40;61.10;;;;;;4973791;28;20097;-70
2022/02/27 04:42:22;;;;;;;5.53;1.83;;;7.40;61.30;;;;;;4973834;28;20113;-69
2022/02/27 04:44:55;;;;;;;7.97;2.10;;;7.40;61.20;;;;;;4974875;28;20117;-69
2022/02/27 04:47:21;;;;;;;8.03;2.30;;;7.40;61.10;;;;;;4958462;28;20054;-69
2022/02/27 04:49:48;;;;;;;6.20;2.08;;;7.40;60.90;;;;;;4973801;28;20352;-72
2022/02/27 04:52:15;;;;;;;7.07;1.92;;;7.40;61.10;;;;;;4974244;28;20019;-69
2022/02/27 04:54:42;;;;;;;9.55;2.00;;;7.40;60.80;;;;;;4977986;28;20054;-69
2022/02/27 04:57:08;;;;;;;5.72;1.92;;;7.40;60.90;;;;;;4977966;28;20126;-71
2022/02/27 04:59:34;;;;;;;7.32;2.67;;;7.40;60.80;;;;;;4977524;28;20109;-69
2022/02/27 05:01:59;;;;;;;4.80;1.98;;;7.40;60.70;;;;;;4977508;28;20023;-69
2022/02/27 05:04:25;;;;;;;9.63;2.15;;;7.40;60.40;;;;;;4977553;28;20495;-72
2022/02/27 05:06:50;;;;;;;9.60;2.40;;;7.40;60.40;;;;;;4977796;28;20077;-71
2022/02/27 05:09:19;;;;;;;9.50;2.15;;;7.40;60.50;;;;;;4977540;28;20049;-81
2022/02/27 05:11:49;;;;;;;4.07;1.98;;;7.40;60.40;;;;;;4960938;28;20378;-77
2022/02/27 05:14:15;;;;;;;5.55;2.00;;;7.50;60.50;;;;;;4976804;28;20038;-71
2022/02/27 05:16:41;;;;;;;8.18;2.75;;;7.40;60.20;;;;;;4977507;28;20030;-77
2022/02/27 05:19:07;;;;;;;8.50;2.13;;;7.40;60.50;;;;;;4960224;28;20464;-71
2022/02/27 05:21:33;;;;;;;6.53;2.20;;;7.40;60.60;;;;;;4977669;28;20030;-75
2022/02/27 05:23:59;;;;;;;10.75;2.35;;;7.40;60.60;;;;;;4959158;28;20043;-77
2022/02/27 05:26:25;;;;;;;5.18;2.40;;;7.40;60.70;;;;;;4977354;28;20097;-76
2022/02/27 05:28:50;;;;;;;8.90;2.65;;;7.40;60.60;;;;;;4977044;28;20130;-78
2022/02/27 05:31:16;;;;;;;5.07;2.13;;;7.50;60.60;;;;;;4977190;28;20049;-76
2022/02/27 05:33:42;;;;;;;7.93;2.17;;;7.40;60.50;;;;;;4977117;28;20458;-79
2022/02/27 05:36:08;;;;;;;7.53;2.20;;;7.40;60.70;;;;;;4977244;28;20027;-79
2022/02/27 05:38:34;;;;;;;7.20;2.28;;;7.40;60.80;;;;;;4977105;28;20089;-75
2022/02/27 05:40:59;;;;;;;7.72;2.47;;;7.40;60.50;;;;;;4977078;28;20082;-77
2022/02/27 05:43:25;;;;;;;7.25;2.22;;;7.50;60.70;;;;;;4981843;28;20037;-78
2022/02/27 05:45:51;;;;;;;6.38;2.15;;;7.40;60.50;;;;;;4983588;28;20023;-77
2022/02/27 05:48:16;;;;;;;6.80;2.17;;;7.40;60.30;;;;;;4977019;28;20030;-77
2022/02/27 05:50:42;;;;;;;6.68;2.38;;;7.40;60.30;;;;;;4959693;28;20037;-82
2022/02/27 05:53:08;;;;;;;6.18;2.33;;;7.40;60.60;;;;;;4976907;28;20063;-80
2022/02/27 05:55:35;;;;;;;5.80;2.22;;;7.40;60.30;;;;;;4976878;28;20389;-77
2022/02/27 05:58:02;;;;;;;7.00;2.15;;;7.50;60.50;;;;;;4976833;28;20035;-77
2022/02/27 06:00:28;;;;;;;6.78;2.65;;;7.50;60.50;;;;;;4976910;28;20338;-76
2022/02/27 06:02:54;;;;;;;14.32;2.90;;;7.50;60.40;;;;;;4976744;28;20033;-75
2022/02/27 06:05:19;;;;;;;6.70;2.20;;;7.50;60.10;;;;;;4976514;28;20094;-71
2022/02/27 06:07:45;;;;;;;9.35;2.30;;;7.50;60.20;;;;;;4976473;28;20041;-74
2022/02/27 06:10:12;;;;;;;7.95;2.58;;;7.50;60.10;;;;;;4976787;28;20101;-80
2022/02/27 06:12:38;;;;;;;7.18;2.20;;;7.50;60.20;;;;;;4976509;28;20061;-79
2022/02/27 06:15:04;;;;;;;7.78;2.22;;;7.50;60.00;;;;;;4976754;28;20366;-72
2022/02/27 06:17:30;;;;;;;6.60;2.20;;;7.50;60.10;;;;;;4977445;28;20453;-74
2022/02/27 06:19:56;;;;;;;8.95;2.75;;;7.60;60.10;;;;;;4981085;28;20034;-78
2022/02/27 06:22:21;;;;;;;9.13;3.25;;;7.50;60.00;;;;;;4983736;28;20062;-72
2022/02/27 06:24:47;;;;;;;6.60;2.30;;;7.60;60.00;;;;;;4979602;28;20053;-70
2022/02/27 06:27:13;;;;;;;7.03;2.55;;;7.60;59.90;;;;;;4977999;28;20023;-68
2022/02/27 06:29:38;;;;;;;8.82;2.58;;;7.60;60.00;;;;;;4977673;28;20058;-79
2022/02/27 06:32:04;;;;;;;7.72;2.60;;;7.60;59.70;;;;;;4976889;28;20019;-80
2022/02/27 06:34:30;;;;;;;7.03;2.35;;;7.60;59.80;;;;;;4977091;28;20034;-81
2022/02/27 06:36:56;;;;;;;10.13;2.38;;;7.70;59.70;;;;;;4976889;28;20106;-82
2022/02/27 06:39:21;;;;;;;10.95;3.05;;;7.70;59.60;;;;;;4977606;28;20496;-75
2022/02/27 06:41:47;;;;;;;6.55;2.50;;;7.70;59.40;;;;;;4977325;28;20026;-73
2022/02/27 06:44:12;;;;;;;6.63;2.25;;;7.80;59.40;;;;;;4976606;28;20035;-77
2022/02/27 06:46:38;;;;;;;7.47;2.55;;;7.80;59.10;;;;;;4959564;28;20168;-77
2022/02/27 06:49:04;;;;;;;4.75;2.28;;;7.90;59.10;;;;;;4976190;28;20489;-72
2022/02/27 06:51:30;;;;;;;7.78;2.40;;;7.90;59.00;;;;;;4978069;28;20023;-77
2022/02/27 06:53:56;;;;;;;7.20;2.70;;;8.00;58.60;;;;;;4977313;28;20037;-76
2022/02/27 06:56:22;;;;;;;7.53;2.80;;;8.10;58.60;;;;;;4975786;28;20388;-81
2022/02/27 06:58:48;;;;;;;7.25;2.25;;;8.20;58.10;;;;;;4975913;28;20384;-79
2022/02/27 07:01:17;;;;;;;11.77;2.72;;;8.30;58.10;;;;;;4975806;28;20022;-79
2022/02/27 07:03:43;;;;;;;9.25;2.42;;;8.40;58.00;;;;;;4975849;28;20042;-73
2022/02/27 07:06:08;;;;;;;6.18;2.65;;;8.50;57.90;;;;;;4975812;28;20026;-75
2022/02/27 07:08:34;;;;;;;8.25;2.95;;;8.60;57.30;;;;;;4976192;28;20038;-81
2022/02/27 07:11:02;;;;;;;6.18;2.28;;;8.70;57.00;;;;;;4975913;28;20468;-83
2022/02/27 07:13:30;;;;;;;7.22;2.50;;;8.70;56.90;;;;;;4976014;28;20030;-74
2022/02/27 07:15:56;;;;;;;11.35;3.28;;;8.80;56.80;;;;;;4975107;28;20043;-79
2022/02/27 07:18:23;;;;;;;8.88;2.60;;;8.80;56.60;;;;;;4975878;28;20034;-73
2022/02/27 07:20:48;;;;;;;7.93;2.67;;;8.90;56.70;;;;;;4978584;28;20519;-72
2022/02/27 07:23:14;;;;;;;9.93;3.58;;;9.00;56.60;;;;;;4965833;28;20023;-75
2022/02/27 07:25:42;;;;;;;9.25;2.92;;;9.00;56.10;;;;;;4983154;28;20098;-83
2022/02/27 07:28:07;;;;;;;6.75;2.53;;;9.00;56.30;;;;;;4975892;28;20117;-72
2022/02/27 07:30:42;;;;;;;8.70;3.42;;;9.10;55.70;;;;;;4975848;28;20098;-83
2022/02/27 07:33:08;;;;;;;10.07;4.43;;;9.10;56.10;;;;;;4975655;28;20034;-72
2022/02/27 07:35:34;;;;;;;8.02;2.60;;;9.20;55.10;;;;;;4975378;28;20090;-84
2022/02/27 07:38:00;;;;;;;5.47;2.33;;;9.20;55.20;;;;;;4975509;28;20031;-84
2022/02/27 07:40:26;;;;;;;7.22;2.83;;;9.20;55.20;;;;;;4975123;28;20059;-80
2022/02/27 07:42:51;;;;;;;10.48;4.35;;;9.30;55.00;;;;;;4975379;28;20038;-83
2022/02/27 07:45:18;;;;;;;8.35;3.40;;;9.30;54.80;;;;;;4975158;28;20212;-77
2022/02/27 07:47:43;;;;;;;6.45;2.60;;;9.40;54.80;;;;;;4958036;28;20046;-78
2022/02/27 07:50:09;;;;;;;7.32;2.65;;;9.50;54.90;;;;;;4973797;28;20476;-79
2022/02/27 07:52:36;;;;;;;12.07;2.97;;;9.50;54.30;;;;;;4955740;29;20062;-82
2022/02/27 07:55:02;;;;;;;8.32;2.78;;;9.60;54.30;;;;;;4956183;29;20035;-80
2022/02/27 07:57:28;;;;;;;7.00;2.95;;;9.60;54.30;;;;;;4965465;29;20055;-71
2022/02/27 07:59:54;;;;;;;9.15;3.00;;;9.60;54.30;;;;;;4969421;29;20034;-77
2022/02/27 08:02:19;;;;;;;9.15;2.80;;;9.70;54.10;;;;;;4948393;29;20370;-73
2022/02/27 08:04:48;;;;;;;6.57;2.50;;;9.70;54.40;;;;;;4966118;29;20038;-79
2022/02/27 08:07:13;;;;;;;9.10;2.50;;;9.80;54.10;;;;;;4957236;29;20481;-83
2022/02/27 08:09:39;;;;;;;7.28;2.55;;;9.80;54.00;;;;;;4956720;29;20046;-77
2022/02/27 08:12:06;;;;;;;9.45;3.00;;;9.80;54.00;;;;;;4955902;29;20023;-79
2022/02/27 08:14:31;;;;;;;8.32;3.00;;;9.80;53.40;;;;;;4956826;29;20083;-82
2022/02/27 08:16:58;;;;;;;6.03;2.42;;;9.80;53.60;;;;;;4958531;29;20027;-80
2022/02/27 08:19:24;;;;;;;6.85;2.58;;;9.90;53.70;;;;;;4958905;29;20507;-78
2022/02/27 08:21:49;;;;;;;7.80;2.40;;;9.90;53.20;;;;;;4959523;29;20028;-78
2022/02/27 08:24:15;;;;;;;8.88;2.25;;;9.90;53.20;;;;;;4955746;29;20023;-76
2022/02/27 08:26:42;;;;;;;6.00;2.33;;;9.90;52.30;;;;;;4954885;28;20027;-80
2022/02/27 08:29:09;;;;;;;6.90;2.50;;;9.90;52.20;;;;;;4954884;29;20489;-76
2022/02/27 08:31:39;;;;;;;7.78;2.53;;;9.90;52.20;;;;;;4955210;29;20605;-80
2022/02/27 08:34:06;;;;;;;7.35;3.00;;;10.00;51.60;;;;;;4955052;29;20070;-76
2022/02/27 08:36:32;;;;;;;6.07;2.10;;;10.00;51.30;;;;;;4957671;28;20392;-76
2022/02/27 08:38:59;;;;;;;6.60;2.58;;;10.00;50.90;;;;;;4938150;29;20063;-81
2022/02/27 08:41:30;;;;;;;5.38;2.40;;;10.10;50.70;;;;;;4967640;28;20029;-82
2022/02/27 08:43:56;;;;;;;17.23;2.80;;;10.10;50.50;;;;;;4957879;28;20065;-79
2022/02/27 08:46:23;;;;;;;7.13;2.35;;;10.10;50.30;;;;;;4976540;28;20484;-84
2022/02/27 08:48:49;;;;;;;8.23;2.45;;;10.10;50.10;;;;;;4976715;28;20043;-83
2022/02/27 08:51:15;;;;;;;6.70;2.80;;;10.20;50.00;;;;;;4979477;28;20019;-83
2022/02/27 08:53:44;;;;;;;8.57;2.70;;;10.20;50.00;;;;;;4960425;28;20111;-83
2022/02/27 08:56:11;;;;;;;5.88;2.60;;;10.20;49.70;;;;;;4978512;28;20027;-79
2022/02/27 08:58:38;;;;;;;6.82;2.25;;;10.30;49.80;;;;;;4976867;28;20460;-81
2022/02/27 09:01:04;;;;;;;5.95;2.50;;;10.30;49.70;;;;;;4973599;28;20023;-76
2022/02/27 09:03:30;;;;;;;9.07;2.70;;;10.30;49.30;;;;;;4964383;28;20399;-83
2022/02/27 09:05:55;;;;;;;6.97;2.53;;;10.40;49.30;;;;;;4955257;28;20027;-83
2022/02/27 09:08:23;;;;;;;6.45;2.70;;;10.50;50.20;;;;;;4969390;28;20046;-80
2022/02/27 09:10:50;;;;;;;5.53;2.17;;;10.50;49.20;;;;;;4980695;28;20455;-82
2022/02/27 09:13:15;;;;;;;8.73;2.70;;;10.50;48.90;;;;;;4969428;28;21751;-76
2022/02/27 09:15:43;;;;;;;7.50;2.83;;;10.60;48.70;;;;;;4967449;28;20035;-72
2022/02/27 09:18:11;;;;;;;8.40;3.05;;;10.70;49.00;;;;;;4973103;28;20034;-74
2022/02/27 09:20:37;;;;;;;9.65;2.67;;;10.80;48.60;;;;;;4976825;28;20543;-82
2022/02/27 09:23:03;;;;;;;9.30;2.67;;;10.80;47.70;;;;;;4974538;28;20111;-73
2022/02/27 09:25:29;;;;;;;7.00;2.60;;;10.80;47.60;;;;;;4973724;28;20118;-72
2022/02/27 09:27:55;;;;;;;14.55;3.80;;;10.90;47.10;;;;;;4971456;28;20038;-77
2022/02/27 09:30:21;;;;;;;13.68;3.83;;;10.90;46.80;;;;;;4975333;28;20492;-75
2022/02/27 09:32:48;;;;;;;7.95;3.22;;;10.90;47.70;;;;;;4975438;28;20026;-76
2022/02/27 09:35:14;;;;;;;7.80;2.90;;;11.10;47.80;;;;;;4974649;28;20041;-77
2022/02/27 09:37:42;;;;;;;8.48;3.10;;;11.10;47.40;;;;;;4972976;28;20019;-73
2022/02/27 09:40:09;;;;;;;6.57;2.53;;;11.20;47.30;;;;;;4981749;28;20062;-80
2022/02/27 09:42:35;;;;;;;7.13;2.55;;;11.30;47.50;;;;;;4997306;28;20034;-77
2022/02/27 09:45:20;;;;;;;10.35;2.65;;;11.30;47.20;;;;;;4994358;28;20034;-74
2022/02/27 09:47:51;;;;;;;6.82;2.55;;;11.40;46.80;;;;;;4987834;28;20041;-68
2022/02/27 09:50:18;;;;;;;12.07;2.60;;;11.40;46.60;;;;;;5003400;28;20026;-68
2022/02/27 09:52:44;;;;;;;8.88;2.80;;;11.30;46.50;;;;;;4993821;28;20019;-74
2022/02/27 09:55:12;;;;;;;8.00;2.80;;;11.30;45.40;;;;;;4982464;28;20059;-71
2022/02/27 09:57:38;;;;;;;10.90;3.53;;;11.30;45.30;;;;;;4981910;28;20038;-69
2022/02/27 10:00:10;;;;;;;7.72;2.80;;;11.20;45.60;;;;;;4976406;28;20090;-72
2022/02/27 10:03:02;;;;;;;8.38;2.83;;;11.20;46.30;;;;;;4977127;28;20149;-80
2022/02/27 10:05:28;;;;;;;6.55;2.80;;;11.30;46.70;;;;;;4986517;28;20027;-73
2022/02/27 10:07:58;;;;;;;7.10;2.90;;;11.30;46.10;;;;;;4980875;28;20035;-74
2022/02/27 10:10:24;;;;;;;7.32;2.85;;;11.30;45.90;;;;;;4978129;28;20026;-71
2022/02/27 10:12:49;;;;;;;8.05;2.88;;;11.40;46.00;;;;;;4973748;28;20027;-76
2022/02/27 10:15:16;;;;;;;9.15;3.50;;;11.50;45.40;;;;;;4970582;28;20030;-75
2022/02/27 10:17:43;;;;;;;6.82;2.75;;;11.60;45.10;;;;;;4999534;28;20491;-75
2022/02/27 10:20:13;;;;;;;6.07;2.70;;;11.60;44.90;;;;;;4988712;28;20538;-75
2022/02/27 10:22:47;;;;;;;5.88;2.75;;;11.70;44.60;;;;;;4976878;28;20388;-82
2022/02/27 10:25:20;;;;;;;7.55;2.33;;;11.70;44.60;;;;;;4965412;28;20511;-77
2022/02/27 10:27:48;;;;;;;6.32;2.70;;;11.80;44.50;;;;;;4966641;28;20024;-83
2022/02/27 10:30:19;;;;;;;5.75;2.63;;;11.80;45.00;;;;;;4971743;28;20555;-77
2022/02/27 10:32:56;;;;;;;7.47;2.58;;;11.80;44.40;;;;;;4979239;28;20492;-79
2022/02/27 10:35:57;;;;;;;6.68;2.78;;;11.90;45.90;;;;;;4970914;28;20041;-84
2022/02/27 10:38:44;;;;;;;8.80;3.08;;;11.90;45.20;;;;;;4975254;28;20042;-70
2022/02/27 10:41:14;;;;;;;7.50;2.78;;;11.90;43.60;;;;;;4971048;28;20051;-80
2022/02/27 10:43:45;;;;;;;7.32;2.47;;;11.90;43.60;;;;;;4977463;28;20486;-73
2022/02/27 10:46:13;;;;;;;5.85;2.22;;;12.00;43.50;;;;;;4978790;28;20472;-83
2022/02/27 10:48:39;;;;;;;4.72;2.40;;;12.00;43.10;;;;;;4942793;28;20046;-74
2022/02/27 10:51:08;;;;;;;7.57;2.70;;;12.10;43.20;;;;;;4990401;28;20104;-76
2022/02/27 10:53:41;;;;;;;7.82;2.95;;;12.20;43.40;;;;;;4979050;28;20049;-75
2022/02/27 10:56:08;;;;;;;7.22;2.78;;;12.20;44.50;;;;;;4980157;28;20034;-73
2022/02/27 10:58:43;;;;;;;6.65;2.58;;;12.30;43.20;;;;;;4981600;28;20014;-76
2022/02/27 11:01:20;;;;;;;6.95;2.80;;;12.30;43.30;;;;;;4979687;28;20130;-73
2022/02/27 11:03:48;;;;;;;9.43;3.22;;;12.30;44.00;;;;;;4980045;28;20093;-80
2022/02/27 11:06:16;;;;;;;9.00;4.03;;;12.20;43.20;;;;;;4981545;28;20034;-77
2022/02/27 11:08:42;;;;;;;8.15;3.28;;;12.20;44.20;;;;;;4981123;28;20037;-73
2022/02/27 11:11:17;;;;;;;9.27;3.00;;;12.20;43.30;;;;;;4981151;28;20496;-73
2022/02/27 11:13:45;;;;;;;9.00;3.22;;;12.30;43.20;;;;;;4981290;28;20026;-70
2022/02/27 11:16:12;;;;;;;7.45;2.90;;;12.30;43.30;;;;;;4980132;28;20026;-70
2022/02/27 11:18:39;;;;;;;6.53;2.92;;;12.30;43.10;;;;;;4982367;28;20034;-69
2022/02/27 11:21:05;;;;;;;9.07;3.22;;;12.30;43.20;;;;;;4978739;28;20046;-77
2022/02/27 11:23:32;;;;;;;8.68;3.05;;;12.40;43.80;;;;;;4984514;28;20030;-73
2022/02/27 11:26:03;;;;;;;6.78;3.03;;;12.40;43.60;;;;;;4983246;28;20089;-76
2022/02/27 11:28:31;;;;;;;8.20;3.53;;;12.40;43.50;;;;;;4977874;28;20572;-71
2022/02/27 11:31:01;;;;;;;9.90;3.08;;;12.50;43.60;;;;;;4979528;28;20019;-72
2022/02/27 11:33:27;;;;;;;9.50;3.75;;;12.50;43.40;;;;;;4978732;28;20027;-70
2022/02/27 11:35:57;;;;;;;7.75;3.38;;;12.60;43.70;;;;;;4980272;28;20111;-70
2022/02/27 11:38:29;;;;;;;6.78;2.90;;;12.70;43.80;;;;;;4978158;28;20039;-71
2022/02/27 11:41:13;;;;;;;9.73;3.20;;;12.80;43.50;;;;;;4964720;28;20059;-74
2022/02/27 11:43:57;;;;;;;8.75;3.20;;;12.80;43.80;;;;;;4928694;29;20058;-76
2022/02/27 11:46:37;;;;;;;7.18;2.92;;;12.90;43.10;;;;;;4942452;29;20124;-71
2022/02/27 11:49:15;;;;;;;8.98;3.13;;;13.00;43.50;;;;;;4959292;28;20042;-71
2022/02/27 11:51:42;;;;;;;8.18;3.20;;;13.00;43.10;;;;;;4959379;29;20027;-70
2022/02/27 11:54:14;;;;;;;6.57;2.80;;;13.00;42.40;;;;;;4962511;29;20034;-70
2022/02/27 11:56:43;;;;;;;9.57;3.17;;;13.00;42.50;;;;;;4960085;29;20038;-75
2022/02/27 11:59:10;;;;;;;7.53;3.13;;;13.10;42.60;;;;;;4959365;28;20086;-79
2022/02/27 12:01:57;;;;;;;9.40;3.35;;;13.10;42.40;;;;;;4959306;28;20034;-72
2022/02/27 12:04:25;;;;;;;9.63;3.78;;;13.10;42.60;;;;;;4959378;29;20028;-76
2022/02/27 12:07:05;;;;;;;8.32;3.42;;;13.10;43.20;;;;;;4958819;29;20039;-73
2022/02/27 12:09:52;;;;;;;9.82;3.65;;;13.10;44.20;;;;;;4954603;29;20082;-80
2022/02/27 12:12:38;;;;;;;7.43;3.08;;;13.20;44.20;;;;;;4961877;29;20055;-80
2022/02/27 12:15:29;;;;;;;7.80;3.38;;;13.10;43.80;;;;;;4962325;29;20458;-80
2022/02/27 12:18:18;;;;;;;7.60;3.22;;;13.10;44.20;;;;;;4962276;28;20473;-77
2022/02/27 12:20:52;;;;;;;8.65;3.58;;;12.90;43.80;;;;;;4964164;29;20019;-80
2022/02/27 12:23:34;;;;;;;8.20;3.35;;;12.80;44.90;;;;;;4961101;29;20437;-80
2022/02/27 12:26:08;;;;;;;8.00;3.50;;;12.70;44.80;;;;;;4961066;29;20031;-79
2022/02/27 12:28:49;;;;;;;14.98;7.13;;;12.80;44.90;;;;;;4960912;28;20103;-77
2022/02/27 12:31:22;;;;;;;10.48;3.95;;;12.80;45.00;;;;;;4966379;29;20029;-80
2022/02/27 12:33:49;;;;;;;;;;;12.60;44.10;;;;;;4971549;29;20031;-80
2022/02/27 12:36:21;;;;;;;11.13;3.67;;;12.50;43.70;;;;;;4952082;29;19918;-69
2022/02/27 12:38:49;;;;;;;9.43;3.25;;;12.50;44.40;;;;;;4955805;28;20023;-70
2022/02/27 12:41:18;;;;;;;9.13;4.00;;;12.40;44.20;;;;;;4973773;28;20047;-70
2022/02/27 12:43:44;;;;;;;9.48;3.53;;;12.30;44.10;;;;;;4974443;28;20109;-68
2022/02/27 12:46:10;;;;;;;8.80;3.85;;;12.30;44.50;;;;;;4974620;28;20421;-71
2022/02/27 12:51:29;;;;;;;10.45;3.88;;;12.20;44.20;;;;;;4975501;28;20057;-70
2022/02/27 12:54:00;;;;;;;11.55;3.70;;;12.10;44.60;;;;;;4975715;28;20039;-71
2022/02/27 12:56:29;;;;;;;7.72;3.53;;;12.00;46.50;;;;;;4975250;28;20119;-72
2022/02/27 12:58:55;;;;;;;9.05;4.00;;;11.90;44.70;;;;;;4957479;28;20420;-70